sensor_id;sensor_type;location;lat;lon;timestamp;temperature;humidity
64501;DHT22;50874;24.150;-110.320;2023-02-22T00:01:31;22.80;90.80
64501;DHT22;50874;24.150;-110.320;2023-02-22T00:04:05;22.80;90.60
64501;DHT22;50874;24.150;-110.320;2023-02-22T00:06:32;22.90;91.00
64501;DHT22;50874;24.150;-110.320;2023-02-22T00:08:59;23.10;90.80
64501;DHT22;50874;24.150;-110.320;2023-02-22T00:11:27;23.20;90.80
64501;DHT22;50874;24.150;-110.320;2023-02-22T00:13:54;23.30;90.80
64501;DHT22;50874;24.150;-110.320;2023-02-22T00:16:23;23.20;91.70
64501;DHT22;50874;24.150;-110.320;2023-02-22T00:18:50;23.30;92.80
64501;DHT22;50874;24.150;-110.320;2023-02-22T00:21:19;23.20;93.50
64501;DHT22;50874;24.150;-110.320;2023-02-22T00:23:47;23.20;94.50
64501;DHT22;50874;24.150;-110.320;2023-02-22T00:26:18;23.10;96.30
64501;DHT22;50874;24.150;-110.320;2023-02-22T00:28:47;23.00;96.80
64501;DHT22;50874;24.150;-110.320;2023-02-22T00:31:14;22.80;98.30
64501;DHT22;50874;24.150;-110.320;2023-02-22T00:33:41;22.70;99.20
64501;DHT22;50874;24.150;-110.320;2023-02-22T00:36:09;22.50;99.80
64501;DHT22;50874;24.150;-110.320;2023-02-22T00:38:36;22.40;99.90
64501;DHT22;50874;24.150;-110.320;2023-02-22T00:41:03;22.20;99.90
64501;DHT22;50874;24.150;-110.320;2023-02-22T00:43:29;22.10;99.90
64501;DHT22;50874;24.150;-110.320;2023-02-22T00:45:56;22.00;99.90
64501;DHT22;50874;24.150;-110.320;2023-02-22T00:48:22;21.90;99.90
64501;DHT22;50874;24.150;-110.320;2023-02-22T00:50:49;21.80;99.90
64501;DHT22;50874;24.150;-110.320;2023-02-22T00:53:21;21.70;99.90
64501;DHT22;50874;24.150;-110.320;2023-02-22T00:55:48;21.60;99.90
64501;DHT22;50874;24.150;-110.320;2023-02-22T00:58:15;21.50;99.90
64501;DHT22;50874;24.150;-110.320;2023-02-22T01:00:42;21.40;99.90
64501;DHT22;50874;24.150;-110.320;2023-02-22T01:03:12;21.30;99.90
64501;DHT22;50874;24.150;-110.320;2023-02-22T01:05:39;21.20;99.90
64501;DHT22;50874;24.150;-110.320;2023-02-22T01:08:07;21.10;99.90
64501;DHT22;50874;24.150;-110.320;2023-02-22T01:10:35;21.00;99.90
64501;DHT22;50874;24.150;-110.320;2023-02-22T01:13:02;21.00;99.90
64501;DHT22;50874;24.150;-110.320;2023-02-22T01:15:35;20.90;99.90
64501;DHT22;50874;24.150;-110.320;2023-02-22T01:18:02;20.70;99.90
64501;DHT22;50874;24.150;-110.320;2023-02-22T01:20:30;20.70;99.90
64501;DHT22;50874;24.150;-110.320;2023-02-22T01:22:59;20.60;99.90
64501;DHT22;50874;24.150;-110.320;2023-02-22T01:25:28;20.50;99.90
64501;DHT22;50874;24.150;-110.320;2023-02-22T01:27:56;20.40;99.90
64501;DHT22;50874;24.150;-110.320;2023-02-22T01:30:25;20.30;99.90
64501;DHT22;50874;24.150;-110.320;2023-02-22T01:32:53;20.30;99.90
64501;DHT22;50874;24.150;-110.320;2023-02-22T01:35:25;20.10;99.90
64501;DHT22;50874;24.150;-110.320;2023-02-22T01:37:53;20.10;99.90
64501;DHT22;50874;24.150;-110.320;2023-02-22T01:40:22;20.00;99.90
64501;DHT22;50874;24.150;-110.320;2023-02-22T01:42:54;20.00;99.90
64501;DHT22;50874;24.150;-110.320;2023-02-22T01:51:39;19.80;99.90
64501;DHT22;50874;24.150;-110.320;2023-02-22T01:54:15;19.80;99.90
64501;DHT22;50874;24.150;-110.320;2023-02-22T01:59:39;19.70;99.90
64501;DHT22;50874;24.150;-110.320;2023-02-22T02:02:08;19.60;99.90
64501;DHT22;50874;24.150;-110.320;2023-02-22T02:04:35;19.50;99.90
64501;DHT22;50874;24.150;-110.320;2023-02-22T02:07:05;19.50;99.90
64501;DHT22;50874;24.150;-110.320;2023-02-22T02:09:53;19.40;99.90
64501;DHT22;50874;24.150;-110.320;2023-02-22T02:12:23;19.30;99.90
64501;DHT22;50874;24.150;-110.320;2023-02-22T02:14:50;19.30;99.90
64501;DHT22;50874;24.150;-110.320;2023-02-22T02:17:19;19.30;99.90
64501;DHT22;50874;24.150;-110.320;2023-02-22T02:20:31;19.20;99.90
64501;DHT22;50874;24.150;-110.320;2023-02-22T02:28:28;19.10;99.90
64501;DHT22;50874;24.150;-110.320;2023-02-22T02:36:51;19.00;99.90
64501;DHT22;50874;24.150;-110.320;2023-02-22T02:39:29;19.00;99.90
64501;DHT22;50874;24.150;-110.320;2023-02-22T02:42:02;18.90;99.90
64501;DHT22;50874;24.150;-110.320;2023-02-22T02:47:18;18.70;99.90
64501;DHT22;50874;24.150;-110.320;2023-02-22T02:49:50;18.60;99.90
64501;DHT22;50874;24.150;-110.320;2023-02-22T02:52:18;18.60;99.90
64501;DHT22;50874;24.150;-110.320;2023-02-22T02:54:47;18.50;99.90
64501;DHT22;50874;24.150;-110.320;2023-02-22T02:57:13;18.50;99.90
64501;DHT22;50874;24.150;-110.320;2023-02-22T02:59:40;18.50;99.90
64501;DHT22;50874;24.150;-110.320;2023-02-22T03:07:37;18.40;99.90
64501;DHT22;50874;24.150;-110.320;2023-02-22T03:29:30;17.90;99.90
64501;DHT22;50874;24.150;-110.320;2023-02-22T03:32:06;17.90;99.90
64501;DHT22;50874;24.150;-110.320;2023-02-22T03:34:36;17.90;99.90
64501;DHT22;50874;24.150;-110.320;2023-02-22T03:37:12;17.80;99.90
64501;DHT22;50874;24.150;-110.320;2023-02-22T03:39:42;17.80;99.90
64501;DHT22;50874;24.150;-110.320;2023-02-22T03:42:28;17.70;99.90
64501;DHT22;50874;24.150;-110.320;2023-02-22T03:44:57;17.70;99.90
64501;DHT22;50874;24.150;-110.320;2023-02-22T03:47:36;17.60;99.90
64501;DHT22;50874;24.150;-110.320;2023-02-22T03:50:26;17.60;99.90
64501;DHT22;50874;24.150;-110.320;2023-02-22T03:52:55;17.60;99.90
64501;DHT22;50874;24.150;-110.320;2023-02-22T03:55:24;17.50;99.90
64501;DHT22;50874;24.150;-110.320;2023-02-22T03:57:53;17.60;99.90
64501;DHT22;50874;24.150;-110.320;2023-02-22T04:00:25;17.50;99.90
64501;DHT22;50874;24.150;-110.320;2023-02-22T04:02:52;17.50;99.90
64501;DHT22;50874;24.150;-110.320;2023-02-22T04:05:18;17.40;99.90
64501;DHT22;50874;24.150;-110.320;2023-02-22T04:07:45;17.40;99.90
64501;DHT22;50874;24.150;-110.320;2023-02-22T04:10:12;17.30;99.90
64501;DHT22;50874;24.150;-110.320;2023-02-22T04:12:40;17.30;99.90
64501;DHT22;50874;24.150;-110.320;2023-02-22T04:15:08;17.30;99.90
64501;DHT22;50874;24.150;-110.320;2023-02-22T04:17:34;17.30;99.90
64501;DHT22;50874;24.150;-110.320;2023-02-22T04:20:01;17.30;99.90
64501;DHT22;50874;24.150;-110.320;2023-02-22T04:22:28;17.20;99.90
64501;DHT22;50874;24.150;-110.320;2023-02-22T04:24:55;17.20;99.90
64501;DHT22;50874;24.150;-110.320;2023-02-22T04:27:21;17.20;99.90
64501;DHT22;50874;24.150;-110.320;2023-02-22T04:29:48;17.20;99.90
64501;DHT22;50874;24.150;-110.320;2023-02-22T04:32:14;17.20;99.90
64501;DHT22;50874;24.150;-110.320;2023-02-22T04:34:41;17.10;99.90
64501;DHT22;50874;24.150;-110.320;2023-02-22T04:37:07;17.10;99.90
64501;DHT22;50874;24.150;-110.320;2023-02-22T04:39:35;17.10;99.90
64501;DHT22;50874;24.150;-110.320;2023-02-22T04:42:01;17.10;99.90
64501;DHT22;50874;24.150;-110.320;2023-02-22T04:44:28;17.00;99.90
64501;DHT22;50874;24.150;-110.320;2023-02-22T04:46:54;17.00;99.90
64501;DHT22;50874;24.150;-110.320;2023-02-22T04:49:22;17.00;99.90
64501;DHT22;50874;24.150;-110.320;2023-02-22T04:51:49;16.90;99.90
64501;DHT22;50874;24.150;-110.320;2023-02-22T04:54:15;16.90;99.90
64501;DHT22;50874;24.150;-110.320;2023-02-22T04:56:45;16.90;99.90
64501;DHT22;50874;24.150;-110.320;2023-02-22T04:59:11;16.90;99.90
64501;DHT22;50874;24.150;-110.320;2023-02-22T05:01:37;16.90;99.90
64501;DHT22;50874;24.150;-110.320;2023-02-22T05:04:05;16.80;99.90
64501;DHT22;50874;24.150;-110.320;2023-02-22T05:06:32;16.80;99.90
64501;DHT22;50874;24.150;-110.320;2023-02-22T05:08:59;16.70;99.90
64501;DHT22;50874;24.150;-110.320;2023-02-22T05:11:26;16.70;99.90
64501;DHT22;50874;24.150;-110.320;2023-02-22T05:13:52;16.50;99.90
64501;DHT22;50874;24.150;-110.320;2023-02-22T05:16:19;16.50;99.90
64501;DHT22;50874;24.150;-110.320;2023-02-22T05:18:46;16.40;99.90
64501;DHT22;50874;24.150;-110.320;2023-02-22T05:21:12;16.30;99.90
64501;DHT22;50874;24.150;-110.320;2023-02-22T05:23:39;16.30;99.90
64501;DHT22;50874;24.150;-110.320;2023-02-22T05:26:06;16.20;99.90
64501;DHT22;50874;24.150;-110.320;2023-02-22T05:28:33;16.10;99.90
64501;DHT22;50874;24.150;-110.320;2023-02-22T05:30:59;16.10;99.90
64501;DHT22;50874;24.150;-110.320;2023-02-22T05:33:26;16.00;99.90
64501;DHT22;50874;24.150;-110.320;2023-02-22T05:35:52;15.90;99.90
64501;DHT22;50874;24.150;-110.320;2023-02-22T05:38:21;15.80;99.90
64501;DHT22;50874;24.150;-110.320;2023-02-22T05:40:47;15.80;99.90
64501;DHT22;50874;24.150;-110.320;2023-02-22T05:43:14;15.70;99.90
64501;DHT22;50874;24.150;-110.320;2023-02-22T05:45:41;15.60;99.90
64501;DHT22;50874;24.150;-110.320;2023-02-22T05:48:08;15.60;99.90
64501;DHT22;50874;24.150;-110.320;2023-02-22T05:50:34;15.50;99.90
64501;DHT22;50874;24.150;-110.320;2023-02-22T05:53:01;15.50;99.90
64501;DHT22;50874;24.150;-110.320;2023-02-22T05:55:27;15.40;99.90
64501;DHT22;50874;24.150;-110.320;2023-02-22T05:57:54;15.40;99.90
64501;DHT22;50874;24.150;-110.320;2023-02-22T06:00:30;15.30;99.90
64501;DHT22;50874;24.150;-110.320;2023-02-22T06:02:59;15.20;99.90
64501;DHT22;50874;24.150;-110.320;2023-02-22T06:05:27;15.20;99.90
64501;DHT22;50874;24.150;-110.320;2023-02-22T06:07:54;15.10;99.90
64501;DHT22;50874;24.150;-110.320;2023-02-22T06:10:22;15.10;99.90
64501;DHT22;50874;24.150;-110.320;2023-02-22T06:12:49;15.00;99.90
64501;DHT22;50874;24.150;-110.320;2023-02-22T06:15:17;14.90;99.90
64501;DHT22;50874;24.150;-110.320;2023-02-22T06:17:44;14.90;99.90
64501;DHT22;50874;24.150;-110.320;2023-02-22T06:20:12;14.80;99.90
64501;DHT22;50874;24.150;-110.320;2023-02-22T06:22:38;14.80;99.90
64501;DHT22;50874;24.150;-110.320;2023-02-22T06:25:09;14.70;99.90
64501;DHT22;50874;24.150;-110.320;2023-02-22T06:27:38;14.70;99.90
64501;DHT22;50874;24.150;-110.320;2023-02-22T06:30:05;14.70;99.90
64501;DHT22;50874;24.150;-110.320;2023-02-22T06:32:31;14.60;99.90
64501;DHT22;50874;24.150;-110.320;2023-02-22T06:34:58;14.60;99.90
64501;DHT22;50874;24.150;-110.320;2023-02-22T06:37:24;14.60;99.90
64501;DHT22;50874;24.150;-110.320;2023-02-22T06:39:51;14.60;99.90
64501;DHT22;50874;24.150;-110.320;2023-02-22T06:42:17;14.60;99.90
64501;DHT22;50874;24.150;-110.320;2023-02-22T06:44:44;14.60;99.90
64501;DHT22;50874;24.150;-110.320;2023-02-22T06:47:10;14.60;99.90
64501;DHT22;50874;24.150;-110.320;2023-02-22T06:49:37;14.60;99.90
64501;DHT22;50874;24.150;-110.320;2023-02-22T06:52:05;14.60;99.90
64501;DHT22;50874;24.150;-110.320;2023-02-22T06:54:31;14.60;99.90
64501;DHT22;50874;24.150;-110.320;2023-02-22T06:56:58;14.50;99.90
64501;DHT22;50874;24.150;-110.320;2023-02-22T06:59:24;14.40;99.90
64501;DHT22;50874;24.150;-110.320;2023-02-22T07:01:52;14.50;99.90
64501;DHT22;50874;24.150;-110.320;2023-02-22T07:04:19;14.40;99.90
64501;DHT22;50874;24.150;-110.320;2023-02-22T07:06:46;14.40;99.90
64501;DHT22;50874;24.150;-110.320;2023-02-22T07:09:13;14.40;99.90
64501;DHT22;50874;24.150;-110.320;2023-02-22T07:11:40;14.40;99.90
64501;DHT22;50874;24.150;-110.320;2023-02-22T07:14:07;14.30;99.90
64501;DHT22;50874;24.150;-110.320;2023-02-22T07:16:33;14.30;99.90
64501;DHT22;50874;24.150;-110.320;2023-02-22T07:19:00;14.30;99.90
64501;DHT22;50874;24.150;-110.320;2023-02-22T07:21:29;14.20;99.90
64501;DHT22;50874;24.150;-110.320;2023-02-22T07:23:57;14.20;99.90
64501;DHT22;50874;24.150;-110.320;2023-02-22T07:26:25;14.20;99.90
64501;DHT22;50874;24.150;-110.320;2023-02-22T07:28:51;14.20;99.90
64501;DHT22;50874;24.150;-110.320;2023-02-22T07:31:18;14.10;99.90
64501;DHT22;50874;24.150;-110.320;2023-02-22T07:33:48;14.10;99.90
64501;DHT22;50874;24.150;-110.320;2023-02-22T07:36:14;14.10;99.90
64501;DHT22;50874;24.150;-110.320;2023-02-22T07:38:45;14.00;99.90
64501;DHT22;50874;24.150;-110.320;2023-02-22T07:41:12;14.00;99.90
64501;DHT22;50874;24.150;-110.320;2023-02-22T07:43:38;13.80;99.90
64501;DHT22;50874;24.150;-110.320;2023-02-22T07:46:05;13.90;99.90
64501;DHT22;50874;24.150;-110.320;2023-02-22T07:48:32;13.80;99.90
64501;DHT22;50874;24.150;-110.320;2023-02-22T07:50:58;13.80;99.90
64501;DHT22;50874;24.150;-110.320;2023-02-22T07:53:29;13.80;99.90
64501;DHT22;50874;24.150;-110.320;2023-02-22T07:55:57;13.70;99.90
64501;DHT22;50874;24.150;-110.320;2023-02-22T07:58:26;13.70;99.90
64501;DHT22;50874;24.150;-110.320;2023-02-22T08:00:53;13.70;99.90
64501;DHT22;50874;24.150;-110.320;2023-02-22T08:03:23;13.70;99.90
64501;DHT22;50874;24.150;-110.320;2023-02-22T08:05:52;13.70;99.90
64501;DHT22;50874;24.150;-110.320;2023-02-22T08:08:19;13.70;99.90
64501;DHT22;50874;24.150;-110.320;2023-02-22T08:10:47;13.60;99.90
64501;DHT22;50874;24.150;-110.320;2023-02-22T08:13:14;13.60;99.90
64501;DHT22;50874;24.150;-110.320;2023-02-22T08:15:42;13.60;99.90
64501;DHT22;50874;24.150;-110.320;2023-02-22T08:18:14;13.60;99.90
64501;DHT22;50874;24.150;-110.320;2023-02-22T08:20:41;13.60;99.90
64501;DHT22;50874;24.150;-110.320;2023-02-22T08:23:09;13.60;99.90
64501;DHT22;50874;24.150;-110.320;2023-02-22T08:25:36;13.50;99.90
64501;DHT22;50874;24.150;-110.320;2023-02-22T08:28:09;13.50;99.90
64501;DHT22;50874;24.150;-110.320;2023-02-22T08:30:37;13.40;99.90
64501;DHT22;50874;24.150;-110.320;2023-02-22T08:33:04;13.40;99.90
64501;DHT22;50874;24.150;-110.320;2023-02-22T08:35:31;13.30;99.90
64501;DHT22;50874;24.150;-110.320;2023-02-22T08:38:01;13.30;99.90
64501;DHT22;50874;24.150;-110.320;2023-02-22T08:40:31;13.30;99.90
64501;DHT22;50874;24.150;-110.320;2023-02-22T08:42:58;13.30;99.90
64501;DHT22;50874;24.150;-110.320;2023-02-22T08:45:26;13.30;99.90
64501;DHT22;50874;24.150;-110.320;2023-02-22T08:47:53;13.30;99.90
64501;DHT22;50874;24.150;-110.320;2023-02-22T08:50:29;13.30;99.90
64501;DHT22;50874;24.150;-110.320;2023-02-22T08:53:00;13.30;99.90
64501;DHT22;50874;24.150;-110.320;2023-02-22T08:55:29;13.30;99.90
64501;DHT22;50874;24.150;-110.320;2023-02-22T08:57:58;13.30;99.90
64501;DHT22;50874;24.150;-110.320;2023-02-22T09:00:26;13.30;99.90
64501;DHT22;50874;24.150;-110.320;2023-02-22T09:02:54;13.30;99.90
64501;DHT22;50874;24.150;-110.320;2023-02-22T09:05:21;13.20;99.90
64501;DHT22;50874;24.150;-110.320;2023-02-22T09:07:47;13.20;99.90
64501;DHT22;50874;24.150;-110.320;2023-02-22T09:10:16;13.20;99.90
64501;DHT22;50874;24.150;-110.320;2023-02-22T09:12:43;13.10;99.90
64501;DHT22;50874;24.150;-110.320;2023-02-22T09:15:10;13.10;99.90
64501;DHT22;50874;24.150;-110.320;2023-02-22T09:17:37;13.00;99.90
64501;DHT22;50874;24.150;-110.320;2023-02-22T09:20:06;13.00;99.90
64501;DHT22;50874;24.150;-110.320;2023-02-22T09:22:32;13.10;99.90
64501;DHT22;50874;24.150;-110.320;2023-02-22T09:24:59;13.00;99.90
64501;DHT22;50874;24.150;-110.320;2023-02-22T09:27:25;13.00;99.90
64501;DHT22;50874;24.150;-110.320;2023-02-22T09:29:55;12.90;99.90
64501;DHT22;50874;24.150;-110.320;2023-02-22T09:32:23;13.00;99.90
64501;DHT22;50874;24.150;-110.320;2023-02-22T09:34:52;13.00;99.90
64501;DHT22;50874;24.150;-110.320;2023-02-22T09:37:20;13.00;99.90
64501;DHT22;50874;24.150;-110.320;2023-02-22T09:39:47;13.00;99.90
64501;DHT22;50874;24.150;-110.320;2023-02-22T09:47:26;13.00;99.90
64501;DHT22;50874;24.150;-110.320;2023-02-22T09:50:07;12.90;99.90
64501;DHT22;50874;24.150;-110.320;2023-02-22T09:53:06;12.90;99.90
64501;DHT22;50874;24.150;-110.320;2023-02-22T09:55:39;12.80;99.90
64501;DHT22;50874;24.150;-110.320;2023-02-22T09:58:32;12.80;99.90
64501;DHT22;50874;24.150;-110.320;2023-02-22T10:03:49;12.80;99.90
64501;DHT22;50874;24.150;-110.320;2023-02-22T10:06:21;12.80;99.90
64501;DHT22;50874;24.150;-110.320;2023-02-22T10:08:54;12.80;99.90
64501;DHT22;50874;24.150;-110.320;2023-02-22T10:11:48;12.80;99.90
64501;DHT22;50874;24.150;-110.320;2023-02-22T10:17:39;12.80;99.90
64501;DHT22;50874;24.150;-110.320;2023-02-22T10:20:27;12.80;99.90
64501;DHT22;50874;24.150;-110.320;2023-02-22T10:23:16;12.80;99.90
64501;DHT22;50874;24.150;-110.320;2023-02-22T10:25:50;12.70;99.90
64501;DHT22;50874;24.150;-110.320;2023-02-22T10:28:26;12.70;99.90
64501;DHT22;50874;24.150;-110.320;2023-02-22T10:31:07;12.70;99.90
64501;DHT22;50874;24.150;-110.320;2023-02-22T10:33:45;12.60;99.90
64501;DHT22;50874;24.150;-110.320;2023-02-22T10:36:17;12.50;99.90
64501;DHT22;50874;24.150;-110.320;2023-02-22T10:38:57;12.40;99.90
64501;DHT22;50874;24.150;-110.320;2023-02-22T10:41:33;12.30;99.90
64501;DHT22;50874;24.150;-110.320;2023-02-22T10:44:01;12.30;99.90
64501;DHT22;50874;24.150;-110.320;2023-02-22T10:46:29;12.30;99.90
64501;DHT22;50874;24.150;-110.320;2023-02-22T10:49:01;12.30;99.90
64501;DHT22;50874;24.150;-110.320;2023-02-22T10:51:29;12.30;99.90
64501;DHT22;50874;24.150;-110.320;2023-02-22T10:57:06;12.30;99.90
64501;DHT22;50874;24.150;-110.320;2023-02-22T10:59:38;12.30;99.90
64501;DHT22;50874;24.150;-110.320;2023-02-22T11:02:28;12.20;99.90
64501;DHT22;50874;24.150;-110.320;2023-02-22T11:04:57;12.20;99.90
64501;DHT22;50874;24.150;-110.320;2023-02-22T11:07:25;12.20;99.90
64501;DHT22;50874;24.150;-110.320;2023-02-22T11:09:57;12.10;99.90
64501;DHT22;50874;24.150;-110.320;2023-02-22T11:14:55;12.10;99.90
64501;DHT22;50874;24.150;-110.320;2023-02-22T11:17:31;12.10;99.90
64501;DHT22;50874;24.150;-110.320;2023-02-22T11:19:59;12.10;99.90
64501;DHT22;50874;24.150;-110.320;2023-02-22T11:22:36;12.10;99.90
64501;DHT22;50874;24.150;-110.320;2023-02-22T11:25:06;12.10;99.90
64501;DHT22;50874;24.150;-110.320;2023-02-22T11:27:42;12.10;99.90
64501;DHT22;50874;24.150;-110.320;2023-02-22T11:32:52;12.10;99.90
64501;DHT22;50874;24.150;-110.320;2023-02-22T11:35:55;12.20;99.90
64501;DHT22;50874;24.150;-110.320;2023-02-22T11:38:33;12.20;99.90
64501;DHT22;50874;24.150;-110.320;2023-02-22T11:41:31;12.20;99.90
64501;DHT22;50874;24.150;-110.320;2023-02-22T11:44:29;12.20;99.90
64501;DHT22;50874;24.150;-110.320;2023-02-22T11:46:59;12.20;99.90
64501;DHT22;50874;24.150;-110.320;2023-02-22T11:49:36;12.30;99.90
64501;DHT22;50874;24.150;-110.320;2023-02-22T12:00:26;12.20;99.90
64501;DHT22;50874;24.150;-110.320;2023-02-22T12:03:20;12.20;99.90
64501;DHT22;50874;24.150;-110.320;2023-02-22T12:11:36;12.20;99.90
64501;DHT22;50874;24.150;-110.320;2023-02-22T12:14:20;12.20;99.90
64501;DHT22;50874;24.150;-110.320;2023-02-22T12:20:23;12.20;99.90
64501;DHT22;50874;24.150;-110.320;2023-02-22T12:23:04;12.10;99.90
64501;DHT22;50874;24.150;-110.320;2023-02-22T12:25:35;12.10;99.90
64501;DHT22;50874;24.150;-110.320;2023-02-22T12:30:44;12.10;99.90
64501;DHT22;50874;24.150;-110.320;2023-02-22T12:33:20;12.10;99.90
64501;DHT22;50874;24.150;-110.320;2023-02-22T12:35:52;12.20;99.90
64501;DHT22;50874;24.150;-110.320;2023-02-22T12:41:41;12.20;99.90
64501;DHT22;50874;24.150;-110.320;2023-02-22T12:44:20;12.20;99.90
64501;DHT22;50874;24.150;-110.320;2023-02-22T12:46:49;12.20;99.90
64501;DHT22;50874;24.150;-110.320;2023-02-22T13:00:09;12.30;99.90
64501;DHT22;50874;24.150;-110.320;2023-02-22T13:02:48;12.20;99.90
64501;DHT22;50874;24.150;-110.320;2023-02-22T13:05:20;12.20;99.90
64501;DHT22;50874;24.150;-110.320;2023-02-22T13:07:49;12.30;99.90
64501;DHT22;50874;24.150;-110.320;2023-02-22T13:11:11;12.30;99.90
64501;DHT22;50874;24.150;-110.320;2023-02-22T13:16:02;12.30;99.90
64501;DHT22;50874;24.150;-110.320;2023-02-22T13:18:46;12.30;99.90
64501;DHT22;50874;24.150;-110.320;2023-02-22T13:26:47;12.40;99.90
64501;DHT22;50874;24.150;-110.320;2023-02-22T13:51:45;12.90;99.90
64501;DHT22;50874;24.150;-110.320;2023-02-22T13:56:43;13.00;99.90
64501;DHT22;50874;24.150;-110.320;2023-02-22T14:01:50;13.20;99.90
64501;DHT22;50874;24.150;-110.320;2023-02-22T14:06:56;13.30;99.90
64501;DHT22;50874;24.150;-110.320;2023-02-22T14:17:47;13.60;99.90
64501;DHT22;50874;24.150;-110.320;2023-02-22T14:22:48;13.60;99.90
64501;DHT22;50874;24.150;-110.320;2023-02-22T14:25:36;13.60;99.90
64501;DHT22;50874;24.150;-110.320;2023-02-22T14:28:06;13.70;99.90
64501;DHT22;50874;24.150;-110.320;2023-02-22T14:30:36;13.70;99.90
64501;DHT22;50874;24.150;-110.320;2023-02-22T14:36:08;13.90;99.90
64501;DHT22;50874;24.150;-110.320;2023-02-22T14:38:35;13.90;99.90
64501;DHT22;50874;24.150;-110.320;2023-02-22T14:41:02;14.00;99.90
64501;DHT22;50874;24.150;-110.320;2023-02-22T14:43:29;14.10;99.90
64501;DHT22;50874;24.150;-110.320;2023-02-22T14:45:56;14.30;99.90
64501;DHT22;50874;24.150;-110.320;2023-02-22T14:48:46;14.50;99.90
64501;DHT22;50874;24.150;-110.320;2023-02-22T14:52:05;14.70;99.90
64501;DHT22;50874;24.150;-110.320;2023-02-22T14:54:52;15.10;99.90
64501;DHT22;50874;24.150;-110.320;2023-02-22T15:00:42;15.70;99.90
64501;DHT22;50874;24.150;-110.320;2023-02-22T15:03:29;16.00;99.90
64501;DHT22;50874;24.150;-110.320;2023-02-22T15:06:12;16.30;99.90
64501;DHT22;50874;24.150;-110.320;2023-02-22T15:08:41;16.60;99.90
64501;DHT22;50874;24.150;-110.320;2023-02-22T15:11:28;16.90;99.90
64501;DHT22;50874;24.150;-110.320;2023-02-22T15:13:57;17.20;99.90
64501;DHT22;50874;24.150;-110.320;2023-02-22T15:16:26;17.60;99.90
64501;DHT22;50874;24.150;-110.320;2023-02-22T15:19:13;17.80;99.90
64501;DHT22;50874;24.150;-110.320;2023-02-22T15:21:47;18.00;99.90
64501;DHT22;50874;24.150;-110.320;2023-02-22T15:24:24;18.40;99.90
64501;DHT22;50874;24.150;-110.320;2023-02-22T15:26:52;18.80;99.90
64501;DHT22;50874;24.150;-110.320;2023-02-22T15:29:21;18.70;99.90
64501;DHT22;50874;24.150;-110.320;2023-02-22T15:31:48;18.70;99.90
64501;DHT22;50874;24.150;-110.320;2023-02-22T15:36:46;19.40;99.90
64501;DHT22;50874;24.150;-110.320;2023-02-22T15:39:20;20.10;99.90
64501;DHT22;50874;24.150;-110.320;2023-02-22T15:44:40;21.40;99.90
64501;DHT22;50874;24.150;-110.320;2023-02-22T15:47:19;21.80;99.90
64501;DHT22;50874;24.150;-110.320;2023-02-22T15:50:20;22.10;99.90
64501;DHT22;50874;24.150;-110.320;2023-02-22T15:53:30;22.80;99.90
64501;DHT22;50874;24.150;-110.320;2023-02-22T15:55:59;23.00;99.90
64501;DHT22;50874;24.150;-110.320;2023-02-22T15:58:27;23.10;99.90
64501;DHT22;50874;24.150;-110.320;2023-02-22T16:03:38;22.40;99.90
64501;DHT22;50874;24.150;-110.320;2023-02-22T16:06:15;22.90;99.90
64501;DHT22;50874;24.150;-110.320;2023-02-22T16:08:48;22.90;99.90
64501;DHT22;50874;24.150;-110.320;2023-02-22T16:11:33;23.80;99.90
64501;DHT22;50874;24.150;-110.320;2023-02-22T16:14:21;24.00;99.90
64501;DHT22;50874;24.150;-110.320;2023-02-22T16:16:48;23.70;99.90
64501;DHT22;50874;24.150;-110.320;2023-02-22T16:19:39;23.70;99.90
64501;DHT22;50874;24.150;-110.320;2023-02-22T16:22:21;23.10;99.90
64501;DHT22;50874;24.150;-110.320;2023-02-22T16:24:48;22.80;99.90
64501;DHT22;50874;24.150;-110.320;2023-02-22T16:27:19;22.60;99.90
64501;DHT22;50874;24.150;-110.320;2023-02-22T16:30:16;22.40;99.90
64501;DHT22;50874;24.150;-110.320;2023-02-22T16:32:47;22.80;99.90
64501;DHT22;50874;24.150;-110.320;2023-02-22T16:35:14;22.90;99.90
64501;DHT22;50874;24.150;-110.320;2023-02-22T16:37:49;23.50;99.90
64501;DHT22;50874;24.150;-110.320;2023-02-22T16:40:38;23.20;99.90
64501;DHT22;50874;24.150;-110.320;2023-02-22T16:43:17;23.30;99.90
64501;DHT22;50874;24.150;-110.320;2023-02-22T16:45:45;22.80;99.90
64501;DHT22;50874;24.150;-110.320;2023-02-22T16:48:30;23.20;99.90
64501;DHT22;50874;24.150;-110.320;2023-02-22T16:51:00;23.10;99.90
64501;DHT22;50874;24.150;-110.320;2023-02-22T16:53:29;23.20;99.90
64501;DHT22;50874;24.150;-110.320;2023-02-22T16:56:03;23.60;99.90
64501;DHT22;50874;24.150;-110.320;2023-02-22T16:58:35;23.70;99.90
64501;DHT22;50874;24.150;-110.320;2023-02-22T17:01:05;23.40;99.90
64501;DHT22;50874;24.150;-110.320;2023-02-22T17:03:37;23.10;99.90
64501;DHT22;50874;24.150;-110.320;2023-02-22T17:06:05;23.00;99.90
64501;DHT22;50874;24.150;-110.320;2023-02-22T17:08:37;22.80;99.90
64501;DHT22;50874;24.150;-110.320;2023-02-22T17:11:03;22.80;99.90
64501;DHT22;50874;24.150;-110.320;2023-02-22T17:13:30;22.60;99.90
64501;DHT22;50874;24.150;-110.320;2023-02-22T17:15:57;22.50;99.90
64501;DHT22;50874;24.150;-110.320;2023-02-22T17:18:24;22.30;99.90
64501;DHT22;50874;24.150;-110.320;2023-02-22T17:20:53;22.30;99.90
64501;DHT22;50874;24.150;-110.320;2023-02-22T17:23:21;22.00;99.90
64501;DHT22;50874;24.150;-110.320;2023-02-22T17:25:53;22.00;99.90
64501;DHT22;50874;24.150;-110.320;2023-02-22T17:28:32;22.10;99.90
64501;DHT22;50874;24.150;-110.320;2023-02-22T17:31:04;22.30;99.90
64501;DHT22;50874;24.150;-110.320;2023-02-22T17:33:33;23.10;99.90
64501;DHT22;50874;24.150;-110.320;2023-02-22T17:36:03;23.90;99.90
64501;DHT22;50874;24.150;-110.320;2023-02-22T17:38:30;23.90;99.90
64501;DHT22;50874;24.150;-110.320;2023-02-22T17:40:58;23.80;99.90
64501;DHT22;50874;24.150;-110.320;2023-02-22T17:43:25;23.90;99.90
64501;DHT22;50874;24.150;-110.320;2023-02-22T17:45:52;25.10;99.90
64501;DHT22;50874;24.150;-110.320;2023-02-22T17:48:20;25.90;99.90
64501;DHT22;50874;24.150;-110.320;2023-02-22T17:50:46;26.60;99.90
64501;DHT22;50874;24.150;-110.320;2023-02-22T17:53:15;27.20;99.50
64501;DHT22;50874;24.150;-110.320;2023-02-22T17:55:46;27.60;98.70
64501;DHT22;50874;24.150;-110.320;2023-02-22T17:58:13;27.90;97.70